createdAt,value
2022-08-24T00:02:21.543Z,13.50
2022-08-24T00:07:27.560Z,10.40
2022-08-24T00:12:31.459Z,12.10
2022-08-24T00:17:34.317Z,15.75
2022-08-24T00:22:36.089Z,11.57
2022-08-24T00:27:39.654Z,10.02
2022-08-24T00:32:42.906Z,13.20
2022-08-24T00:37:45.993Z,15.85
2022-08-24T00:42:48.154Z,10.10
2022-08-24T00:47:59.222Z,9.77
2022-08-24T00:53:04.497Z,8.65
2022-08-24T00:58:16.937Z,10.60
2022-08-24T01:03:19.447Z,12.98
2022-08-24T01:08:23.319Z,14.02
2022-08-24T01:13:25.822Z,9.75
2022-08-24T01:18:47.271Z,11.38
2022-08-24T01:23:55.241Z,13.00
2022-08-24T01:29:02.965Z,16.27
2022-08-24T01:34:06.988Z,11.00
2022-08-24T01:39:15.456Z,11.65
2022-08-24T01:44:19.704Z,11.68
2022-08-24T01:49:24.876Z,12.90
2022-08-24T01:54:27.685Z,15.15
2022-08-24T01:59:29.585Z,11.48
2022-08-24T02:04:33.871Z,12.30
2022-08-24T02:09:36.760Z,11.43
2022-08-24T02:14:39.601Z,12.25
2022-08-24T02:19:41.708Z,13.23
2022-08-24T02:24:43.532Z,13.00
2022-08-24T02:29:46.138Z,11.93
2022-08-24T02:34:48.057Z,12.43
2022-08-24T02:39:49.838Z,13.15
2022-08-24T02:44:55.292Z,15.43
2022-08-24T02:49:57.523Z,17.45
2022-08-24T02:55:00.191Z,13.55
2022-08-24T03:00:04.965Z,13.45
2022-08-24T03:05:10.297Z,12.18
2022-08-24T03:10:12.905Z,18.90
2022-08-24T03:15:15.205Z,13.65
2022-08-24T03:20:20.193Z,15.60
2022-08-24T03:25:24.746Z,14.15
2022-08-24T03:30:26.715Z,13.38
2022-08-24T03:35:28.868Z,22.02
2022-08-24T03:40:33.316Z,12.88
2022-08-24T03:45:35.262Z,15.10
2022-08-24T03:50:37.252Z,14.27
2022-08-24T03:55:38.957Z,10.48
2022-08-24T04:00:42.767Z,16.83
2022-08-24T04:05:47.604Z,11.70
2022-08-24T04:10:49.939Z,15.93
2022-08-24T04:15:53.045Z,11.63
2022-08-24T04:20:54.818Z,22.00
2022-08-24T04:26:02.884Z,10.63
2022-08-24T04:31:06.786Z,14.15
2022-08-24T04:36:17.176Z,12.13
2022-08-24T04:41:27.408Z,11.45
2022-08-24T04:46:34.092Z,21.92
2022-08-24T04:51:36.836Z,10.52
2022-08-24T04:56:40.083Z,15.98
2022-08-24T05:01:42.840Z,11.50
2022-08-24T05:06:45.439Z,14.57
2022-08-24T05:11:49.781Z,12.75
2022-08-24T05:16:56.781Z,9.82
2022-08-24T05:21:58.844Z,9.20
2022-08-24T05:27:00.600Z,13.00
2022-08-24T05:32:04.139Z,11.00
2022-08-24T05:37:06.690Z,15.40
2022-08-24T05:42:31.769Z,10.75
2022-08-24T05:47:34.735Z,9.10
2022-08-24T05:52:43.605Z,13.40
2022-08-24T05:57:45.884Z,15.25
2022-08-24T06:02:53.064Z,13.20
2022-08-24T06:07:56.578Z,12.73
2022-08-24T06:12:58.296Z,13.45
2022-08-24T06:18:00.156Z,13.57
2022-08-24T06:23:02.130Z,10.68
2022-08-24T06:28:10.662Z,11.68
2022-08-24T06:33:12.851Z,12.13
2022-08-24T06:38:19.941Z,12.95
2022-08-24T06:43:24.539Z,15.85
2022-08-24T06:48:28.534Z,11.93
2022-08-24T06:53:30.242Z,11.32
2022-08-24T06:58:33.313Z,9.75
2022-08-24T07:03:36.434Z,11.45
2022-08-24T07:08:53.500Z,15.25
2022-08-24T07:13:55.455Z,9.15
2022-08-24T07:18:59.001Z,13.02
2022-08-24T07:24:03.437Z,12.88
2022-08-24T07:29:43.618Z,11.23
2022-08-24T07:34:37.668Z,32.70
2022-08-24T07:39:41.074Z,16.45
2022-08-24T07:44:46.579Z,16.08
2022-08-24T07:49:48.410Z,21.40
2022-08-24T07:54:50.162Z,13.63
2022-08-24T07:59:51.959Z,14.88
2022-08-24T08:04:56.896Z,10.45
2022-08-24T08:10:01.401Z,14.65
2022-08-24T08:15:09.885Z,17.40
2022-08-24T08:20:15.610Z,13.70
2022-08-24T08:25:22.019Z,13.38
2022-08-24T08:30:24.608Z,13.93
2022-08-24T08:35:27.361Z,17.50
2022-08-24T08:40:58.105Z,16.67
2022-08-24T08:46:00.070Z,18.55
2022-08-24T08:51:41.502Z,18.73
2022-08-24T08:57:01.537Z,12.00
2022-08-24T09:02:33.074Z,11.13
2022-08-24T09:07:52.895Z,14.20
2022-08-24T09:13:12.654Z,10.70
2022-08-24T09:18:37.818Z,15.32
2022-08-24T09:24:02.982Z,10.02
2022-08-24T09:29:42.787Z,15.82
2022-08-24T09:35:06.812Z,16.63
2022-08-24T09:40:27.192Z,14.65
2022-08-24T09:45:44.528Z,13.80
2022-08-24T09:51:04.157Z,12.95
2022-08-24T09:56:27.993Z,15.70
2022-08-24T10:01:35.438Z,9.57
2022-08-24T10:06:53.972Z,15.73
2022-08-24T10:12:07.766Z,13.70
2022-08-24T10:17:43.195Z,16.67
2022-08-24T10:23:03.395Z,15.88
2022-08-24T10:28:26.706Z,17.90
2022-08-24T10:33:44.269Z,10.63
2022-08-24T10:39:23.405Z,15.00
2022-08-24T10:44:57.521Z,11.90
2022-08-24T10:50:27.927Z,25.38
2022-08-24T10:55:34.912Z,11.05
2022-08-24T11:00:37.064Z,13.23
2022-08-24T11:05:49.607Z,18.60
2022-08-24T11:11:11.302Z,20.65
2022-08-24T11:16:23.940Z,14.57
2022-08-24T11:21:52.705Z,19.73
2022-08-24T11:27:06.932Z,17.35
2022-08-24T11:32:08.619Z,41.28
2022-08-24T11:37:16.001Z,20.42
2022-08-24T11:42:43.007Z,20.00
2022-08-24T11:48:05.444Z,17.50
2022-08-24T11:53:12.155Z,20.45
2022-08-24T11:58:27.079Z,21.40
2022-08-24T12:04:10.024Z,12.43
2022-08-24T12:09:30.136Z,17.50
2022-08-24T12:14:42.916Z,13.50
2022-08-24T12:19:50.034Z,13.82
2022-08-24T12:24:55.709Z,12.32
2022-08-24T12:30:16.481Z,15.95
2022-08-24T12:35:35.134Z,13.80
2022-08-24T12:40:42.240Z,15.57
2022-08-24T12:45:44.865Z,14.93
2022-08-24T12:50:52.205Z,14.65
2022-08-24T12:56:22.838Z,16.75
2022-08-24T13:01:31.118Z,14.43
2022-08-24T13:06:55.282Z,12.98
2022-08-24T13:12:38.839Z,13.25
2022-08-24T13:17:41.896Z,15.48
2022-08-24T13:23:05.357Z,19.45
2022-08-24T13:28:10.598Z,13.02
2022-08-24T13:33:17.842Z,17.73
2022-08-24T13:38:34.607Z,12.88
2022-08-24T13:43:42.552Z,10.35
2022-08-24T13:48:53.419Z,13.45
2022-08-24T13:53:55.104Z,13.00
2022-08-24T13:59:17.633Z,13.68
2022-08-24T14:04:25.773Z,26.30
2022-08-24T14:09:37.916Z,15.10
2022-08-24T14:14:51.468Z,12.43
2022-08-24T14:20:14.432Z,13.40
2022-08-24T14:25:28.088Z,10.52
2022-08-24T14:30:29.769Z,12.27
2022-08-24T14:35:47.030Z,11.80
2022-08-24T14:41:18.393Z,13.30
2022-08-24T14:46:40.625Z,17.08
2022-08-24T14:51:52.761Z,12.70
2022-08-24T14:56:55.021Z,11.52
2022-08-24T15:02:35.561Z,14.38
2022-08-24T15:07:37.354Z,14.13
2022-08-24T15:12:54.286Z,14.90
2022-08-24T15:18:06.943Z,13.32
2022-08-24T15:23:32.060Z,13.15
2022-08-24T15:28:34.266Z,15.25
2022-08-24T15:33:57.840Z,14.82
2022-08-24T15:39:00.530Z,16.55
2022-08-24T15:44:23.423Z,23.35
2022-08-24T15:49:31.065Z,23.55
2022-08-24T15:54:43.465Z,19.83
2022-08-24T15:59:49.110Z,15.85
2022-08-24T16:04:51.773Z,17.27
2022-08-24T16:10:25.989Z,18.88
2022-08-24T16:15:27.693Z,17.85
2022-08-24T16:20:33.857Z,17.15
2022-08-24T16:25:41.062Z,19.90
2022-08-24T16:30:47.144Z,20.83
2022-08-24T16:35:50.610Z,21.33
2022-08-24T16:40:52.400Z,16.65
2022-08-24T16:45:54.897Z,16.20
2022-08-24T16:50:56.948Z,23.67
2022-08-24T16:55:58.920Z,20.08
2022-08-24T17:01:01.795Z,17.65
2022-08-24T17:06:03.520Z,18.13
2022-08-24T17:11:05.826Z,18.50
2022-08-24T17:16:08.974Z,13.95
2022-08-24T17:21:10.702Z,13.27
2022-08-24T17:26:20.178Z,15.75
2022-08-24T17:31:24.887Z,14.43
2022-08-24T17:36:32.327Z,16.55
2022-08-24T17:41:34.762Z,15.10
2022-08-24T17:46:37.293Z,15.13
2022-08-24T17:51:39.152Z,14.07
2022-08-24T17:56:44.669Z,19.08
2022-08-24T18:01:50.208Z,14.18
2022-08-24T18:06:52.441Z,23.65
2022-08-24T18:11:54.111Z,18.13
2022-08-24T18:16:58.904Z,23.23
2022-08-24T18:22:02.008Z,18.17
2022-08-24T18:27:10.087Z,17.38
2022-08-24T18:32:13.476Z,17.15
2022-08-24T18:37:15.142Z,26.35
2022-08-24T18:42:17.669Z,17.48
2022-08-24T18:47:19.306Z,18.40
2022-08-24T18:52:21.540Z,22.73
2022-08-24T18:57:23.358Z,22.25
2022-08-24T19:02:31.482Z,21.85
2022-08-24T19:07:36.691Z,18.52
2022-08-24T19:12:43.988Z,23.75
2022-08-24T19:17:48.959Z,20.15
2022-08-24T19:22:51.268Z,24.38
2022-08-24T19:27:55.112Z,23.42
2022-08-24T19:32:57.290Z,25.33
2022-08-24T19:37:58.949Z,23.23
2022-08-24T19:43:02.631Z,31.17
2022-08-24T19:48:04.764Z,22.58
2022-08-24T19:53:07.023Z,27.85
2022-08-24T19:58:16.041Z,26.30
2022-08-24T20:03:17.698Z,23.33
2022-08-24T20:08:20.527Z,25.67
2022-08-24T20:13:22.166Z,22.08
2022-08-24T20:18:30.033Z,25.17
2022-08-24T20:23:31.839Z,28.90
2022-08-24T20:28:46.249Z,32.70
2022-08-24T20:33:48.381Z,28.52
2022-08-24T20:38:51.016Z,25.80
2022-08-24T20:43:52.921Z,25.23
2022-08-24T20:48:56.025Z,25.65
2022-08-24T20:53:58.014Z,25.23
2022-08-24T20:59:09.868Z,25.10
2022-08-24T21:04:11.807Z,31.50
2022-08-24T21:09:14.208Z,32.03
2022-08-24T21:14:16.448Z,26.20
2022-08-24T21:19:18.130Z,28.52
2022-08-24T21:24:19.851Z,24.50
2022-08-24T21:29:21.647Z,28.52
2022-08-24T21:34:41.906Z,32.85
2022-08-24T21:39:44.624Z,27.40
2022-08-24T21:44:46.286Z,26.80
2022-08-24T21:49:48.978Z,27.33
2022-08-24T21:54:50.649Z,29.30
2022-08-24T21:59:52.377Z,28.77
2022-08-24T22:04:56.814Z,28.65
2022-08-24T22:09:58.663Z,34.10
2022-08-24T22:15:03.473Z,32.90
2022-08-24T22:20:07.838Z,31.00
2022-08-24T22:25:13.060Z,30.05
2022-08-24T22:30:18.286Z,26.63
2022-08-24T22:35:20.076Z,29.60
2022-08-24T22:40:21.781Z,26.55
2022-08-24T22:45:23.450Z,29.55
2022-08-24T22:50:25.141Z,28.20
2022-08-24T22:55:29.956Z,29.13
2022-08-24T23:00:31.887Z,34.15
2022-08-24T23:05:33.551Z,29.52
2022-08-24T23:10:35.217Z,31.25
2022-08-24T23:15:36.884Z,31.83
2022-08-24T23:20:38.580Z,28.85
2022-08-24T23:25:40.225Z,26.98
2022-08-24T23:30:41.899Z,27.60
2022-08-24T23:35:43.983Z,26.83
2022-08-24T23:40:46.582Z,34.13
2022-08-24T23:45:48.246Z,27.67
2022-08-24T23:50:50.011Z,29.70
2022-08-24T23:55:52.597Z,26.05
